»·PEaware :: N31ER KBOS-CYYZ

N31ER :: KBOS-CYYZ

FLIGHT INFORMATION

Flight Status: Arrived
Operator: Privately registered:
United States
More flights under this callsign
Pilot: Peter G. (4)
Aircraft: MCDONNELL-DOUGLAS F-4 PHANTOM
(F4)
More flights by this aircraft type
Origin: KBOS Logan Intl
United States
Destination: CYYZ Toronto/Pearson Intl
Canada
More flights between these airports :: More routes between these airports
Route:
File this flight plan on PilotEdge
Remarks:
Altitude:
(Current/Filed)
25,000ft
Speed:
(Current/Filed)
250kts
Departed: 08-Jul-15 02:46 PM
Arrived: 08-Jul-15 03:38 PM
Distance/Time
Traveled:
386nm/0:51
Distance/Time
To Go:
Arrived

Flight Plot

Page will automatically refresh every two minutes.


Map Options




Map Legend


Flown Route
Filed Route
Departure Airport
Arrival Airport
Navaid (VOR, NDB)
Fix

Horizontal Profiles

Position Reports

Time Latitude Longitude Heading Altitude Ground
Speed
08-Jul-15 14:44 42.364542 -71.015662 125 25ft 46kts
08-Jul-15 14:45 42.383061 -71.034151 254 1756ft 535kts
08-Jul-15 14:46 42.340766 -71.236950 255 16940ft 676kts
08-Jul-15 14:47 42.298299 -71.501805 258 20591ft 760kts
08-Jul-15 14:48 42.259396 -71.781847 259 29019ft 807kts
08-Jul-15 14:49 42.215171 -72.097721 259 35147ft 874kts
08-Jul-15 14:50 42.186960 -72.442341 277 42061ft 1050kts
08-Jul-15 14:51 42.228613 -72.874237 277 43510ft 1250kts
08-Jul-15 14:52 42.382645 -73.297896 298 47089ft 1335kts
08-Jul-15 14:53 42.610615 -73.647242 341 39813ft 1129kts
08-Jul-15 14:54 42.794351 -73.687391 129 28776ft 442kts
08-Jul-15 14:55 42.774691 -73.695841 255 23932ft 295kts
08-Jul-15 14:56 42.742724 -73.916852 261 27152ft 757kts
08-Jul-15 14:57 42.752098 -74.210008 279 25955ft 610kts
08-Jul-15 14:58 42.860999 -74.348859 322 25865ft 583kts
08-Jul-15 14:59 42.951218 -74.516135 266 26258ft 549kts
08-Jul-15 15:00 42.938203 -74.736304 264 25887ft 661kts
08-Jul-15 15:01 42.963081 -74.956582 292 26044ft 598kts
08-Jul-15 15:02 43.000303 -75.187086 275 27925ft 628kts
08-Jul-15 15:03 42.989867 -75.220710 293 25601ft 574kts
08-Jul-15 15:04 43.054789 -75.477087 260 27780ft 796kts
08-Jul-15 15:05 43.067159 -75.739916 345 26240ft 696kts
08-Jul-15 15:06 43.128149 -75.787240 175 25842ft 360kts
08-Jul-15 15:07 43.086839 -76.001836 259 26041ft 787kts
08-Jul-15 15:08 43.155733 -76.253248 293 25886ft 577kts
08-Jul-15 15:09 43.194976 -76.451684 260 25815ft 496kts
08-Jul-15 15:10 43.211265 -76.607143 277 26706ft 364kts
08-Jul-15 15:11 43.184428 -76.786043 280 26011ft 578kts
08-Jul-15 15:12 43.255195 -76.945020 255 26341ft 522kts
08-Jul-15 15:13 43.254256 -77.155432 308 26352ft 556kts
08-Jul-15 15:14 43.278907 -77.361256 282 26948ft 579kts
08-Jul-15 15:15 43.315740 -77.575595 289 26013ft 585kts
08-Jul-15 15:16 43.380012 -77.774719 281 26285ft 559kts
08-Jul-15 15:17 43.408652 -77.978074 283 25935ft 547kts
08-Jul-15 15:18 43.428968 -78.146594 279 24985ft 535kts
08-Jul-15 15:19 43.455374 -78.351366 283 23054ft 530kts
08-Jul-15 15:20 43.481638 -78.525421 276 23098ft 403kts
08-Jul-15 15:21 43.486848 -78.597451 274 20627ft 195kts
08-Jul-15 15:22 43.479480 -78.727138 288 18680ft 523kts
08-Jul-15 15:23 43.525167 -78.936806 280 16002ft 598kts
08-Jul-15 15:24 43.604027 -79.100057 303 14304ft 514kts
08-Jul-15 15:25 43.650679 -79.216491 284 12899ft 278kts
08-Jul-15 15:26 43.635574 -79.277083 211 9258ft 197kts
08-Jul-15 15:27 43.629943 -79.402877 264 6505ft 559kts
08-Jul-15 15:28 43.663717 -79.508246 319 5035ft 271kts
08-Jul-15 15:29 43.723489 -79.576124 319 3675ft 297kts
08-Jul-15 15:30 43.780894 -79.643112 318 3319ft 202kts
08-Jul-15 15:31 43.829700 -79.700118 320 2886ft 199kts
08-Jul-15 15:32 43.860861 -79.753434 179 3393ft 99kts
08-Jul-15 15:33 43.821879 -79.699313 228 3557ft 214kts
08-Jul-15 15:34 43.780359 -79.769932 356 3309ft 195kts
08-Jul-15 15:35 43.751348 -79.719453 137 1834ft 173kts
08-Jul-15 15:36 43.712393 -79.668339 136 1090ft 208kts
08-Jul-15 15:37 43.687291 -79.634363 50 573ft 23kts
08-Jul-15 15:38 43.685427 -79.627325 136 573ft 34kts
08-Jul-15 15:39 43.683121 -79.622587 95 573ft 14kts
08-Jul-15 15:40 43.683065 -79.621759 95 573ft 0kts
08-Jul-15 15:41 43.683065 -79.621759 95 573ft 0kts
08-Jul-15 15:42 43.683355 -79.620765 108 573ft 0kts
08-Jul-15 15:43 43.683337 -79.620773 107 573ft 0kts
08-Jul-15 15:44 43.683337 -79.620773 107 573ft 0kts
08-Jul-15 15:45 43.683337 -79.620773 107 573ft 0kts
08-Jul-15 15:46 43.683337 -79.620773 107 573ft 0kts
08-Jul-15 15:47 43.683337 -79.620773 107 573ft 0kts
08-Jul-15 15:48 43.683337 -79.620773 107 573ft 0kts
08-Jul-15 15:49 43.683337 -79.620773 107 573ft 0kts
08-Jul-15 15:50 43.683337 -79.620773 107 573ft 0kts

Navigation Log

Ident Type
Flight plan parsing failed, navigation log unavailable